sensor_id;sensor_type;location;lat;lon;timestamp;pressure;altitude;pressure_sealevel;temperature;humidity
34297;BME280;20564;42.902;25.336;2022-09-12T00:00:45;96864.75;;;16.81;100.00
34297;BME280;20564;42.902;25.336;2022-09-12T00:03:12;96863.34;;;16.85;100.00
34297;BME280;20564;42.902;25.336;2022-09-12T00:05:44;96871.97;;;16.87;100.00
34297;BME280;20564;42.902;25.336;2022-09-12T00:08:12;96876.78;;;16.77;100.00
34297;BME280;20564;42.902;25.336;2022-09-12T00:10:42;96876.59;;;16.78;100.00
34297;BME280;20564;42.902;25.336;2022-09-12T00:13:12;96871.81;;;16.74;100.00
34297;BME280;20564;42.902;25.336;2022-09-12T00:15:43;96883.28;;;16.74;100.00
34297;BME280;20564;42.902;25.336;2022-09-12T00:18:15;96876.78;;;16.77;100.00
34297;BME280;20564;42.902;25.336;2022-09-12T00:20:44;96883.63;;;16.71;100.00
34297;BME280;20564;42.902;25.336;2022-09-12T00:23:12;96873.50;;;16.75;100.00
34297;BME280;20564;42.902;25.336;2022-09-12T00:25:47;96873.38;;;16.68;100.00
34297;BME280;20564;42.902;25.336;2022-09-12T00:28:16;96881.16;;;16.70;100.00
34297;BME280;20564;42.902;25.336;2022-09-12T00:30:47;96879.78;;;16.74;100.00
34297;BME280;20564;42.902;25.336;2022-09-12T00:33:16;96870.84;;;16.75;100.00
34297;BME280;20564;42.902;25.336;2022-09-12T00:35:49;96876.41;;;16.80;100.00
34297;BME280;20564;42.902;25.336;2022-09-12T00:38:19;96873.09;;;16.78;100.00
34297;BME280;20564;42.902;25.336;2022-09-12T00:40:47;96871.09;;;16.80;100.00
34297;BME280;20564;42.902;25.336;2022-09-12T00:49:00;96875.56;;;16.64;100.00
34297;BME280;20564;42.902;25.336;2022-09-12T00:51:32;96862.81;;;16.60;100.00
34297;BME280;20564;42.902;25.336;2022-09-12T00:54:05;96881.00;;;16.56;100.00
34297;BME280;20564;42.902;25.336;2022-09-12T00:56:35;96866.06;;;16.55;100.00
34297;BME280;20564;42.902;25.336;2022-09-12T00:59:11;96861.50;;;16.49;100.00
34297;BME280;20564;42.902;25.336;2022-09-12T01:01:40;96859.34;;;16.59;100.00
34297;BME280;20564;42.902;25.336;2022-09-12T01:04:10;96862.84;;;16.45;100.00
34297;BME280;20564;42.902;25.336;2022-09-12T01:06:41;96854.72;;;16.47;100.00
34297;BME280;20564;42.902;25.336;2022-09-12T01:09:12;96851.03;;;16.48;100.00
34297;BME280;20564;42.902;25.336;2022-09-12T01:11:41;96852.06;;;16.32;100.00
34297;BME280;20564;42.902;25.336;2022-09-12T01:14:14;96860.31;;;16.37;100.00
34297;BME280;20564;42.902;25.336;2022-09-12T01:16:41;96854.72;;;16.32;100.00
34297;BME280;20564;42.902;25.336;2022-09-12T01:39:05;96852.25;;;16.15;100.00
34297;BME280;20564;42.902;25.336;2022-09-12T01:41:47;96849.78;;;16.14;100.00
34297;BME280;20564;42.902;25.336;2022-09-12T01:47:21;96845.66;;;16.11;100.00
34297;BME280;20564;42.902;25.336;2022-09-12T01:52:24;96852.44;;;15.99;100.00
34297;BME280;20564;42.902;25.336;2022-09-12T01:55:10;96846.22;;;15.92;100.00
34297;BME280;20564;42.902;25.336;2022-09-12T01:57:43;96844.00;;;15.81;100.00
34297;BME280;20564;42.902;25.336;2022-09-12T02:00:13;96842.44;;;15.86;100.00
34297;BME280;20564;42.902;25.336;2022-09-12T02:02:48;96840.91;;;15.92;100.00
34297;BME280;20564;42.902;25.336;2022-09-12T02:07:52;96831.56;;;15.96;100.00
34297;BME280;20564;42.902;25.336;2022-09-12T02:10:27;96830.56;;;15.97;100.00
34297;BME280;20564;42.902;25.336;2022-09-12T02:13:12;96830.19;;;15.85;100.00
34297;BME280;20564;42.902;25.336;2022-09-12T02:16:08;96828.44;;;15.78;100.00
34297;BME280;20564;42.902;25.336;2022-09-12T02:18:44;96822.03;;;15.72;100.00
34297;BME280;20564;42.902;25.336;2022-09-12T02:21:12;96825.88;;;15.70;100.00
34297;BME280;20564;42.902;25.336;2022-09-12T02:23:44;96826.69;;;15.70;100.00
34297;BME280;20564;42.902;25.336;2022-09-12T02:26:20;96825.75;;;15.63;100.00
34297;BME280;20564;42.902;25.336;2022-09-12T02:28:49;96816.66;;;15.57;100.00
34297;BME280;20564;42.902;25.336;2022-09-12T02:34:09;96827.56;;;15.62;100.00
34297;BME280;20564;42.902;25.336;2022-09-12T02:36:53;96835.66;;;15.46;100.00
34297;BME280;20564;42.902;25.336;2022-09-12T02:39:23;96832.41;;;15.44;100.00
34297;BME280;20564;42.902;25.336;2022-09-12T02:41:51;96843.94;;;15.51;100.00
34297;BME280;20564;42.902;25.336;2022-09-12T02:44:23;96851.50;;;15.39;100.00
34297;BME280;20564;42.902;25.336;2022-09-12T02:46:55;96847.00;;;15.40;100.00
34297;BME280;20564;42.902;25.336;2022-09-12T02:49:24;96841.25;;;15.36;100.00
34297;BME280;20564;42.902;25.336;2022-09-12T02:51:52;96843.84;;;15.22;100.00
34297;BME280;20564;42.902;25.336;2022-09-12T02:54:20;96840.53;;;15.19;100.00
34297;BME280;20564;42.902;25.336;2022-09-12T02:56:47;96845.97;;;15.26;100.00
34297;BME280;20564;42.902;25.336;2022-09-12T02:59:17;96850.78;;;15.23;100.00
34297;BME280;20564;42.902;25.336;2022-09-12T03:10:29;96852.38;;;15.09;100.00
34297;BME280;20564;42.902;25.336;2022-09-12T03:24:15;96865.88;;;14.99;100.00
34297;BME280;20564;42.902;25.336;2022-09-12T03:29:21;96864.47;;;14.88;100.00
34297;BME280;20564;42.902;25.336;2022-09-12T03:31:52;96862.91;;;14.94;100.00
34297;BME280;20564;42.902;25.336;2022-09-12T03:34:21;96866.22;;;14.96;100.00
34297;BME280;20564;42.902;25.336;2022-09-12T03:36:49;96856.44;;;14.97;100.00
34297;BME280;20564;42.902;25.336;2022-09-12T03:39:16;96862.91;;;14.94;100.00
34297;BME280;20564;42.902;25.336;2022-09-12T03:41:43;96864.94;;;14.92;100.00
34297;BME280;20564;42.902;25.336;2022-09-12T03:44:10;96861.63;;;14.90;100.00
34297;BME280;20564;42.902;25.336;2022-09-12T03:46:37;96864.81;;;14.85;100.00
34297;BME280;20564;42.902;25.336;2022-09-12T03:49:04;96855.38;;;14.83;100.00
34297;BME280;20564;42.902;25.336;2022-09-12T03:51:31;96865.31;;;14.81;100.00
34297;BME280;20564;42.902;25.336;2022-09-12T03:53:58;96860.31;;;14.86;100.00
34297;BME280;20564;42.902;25.336;2022-09-12T03:56:25;96870.59;;;14.89;100.00
34297;BME280;20564;42.902;25.336;2022-09-12T03:58:52;96867.28;;;14.87;100.00
34297;BME280;20564;42.902;25.336;2022-09-12T04:01:20;96861.63;;;14.90;100.00
34297;BME280;20564;42.902;25.336;2022-09-12T04:03:49;96869.63;;;14.82;100.00
34297;BME280;20564;42.902;25.336;2022-09-12T04:06:23;96871.63;;;14.80;100.00
34297;BME280;20564;42.902;25.336;2022-09-12T04:08:52;96866.78;;;14.83;100.00
34297;BME280;20564;42.902;25.336;2022-09-12T04:11:21;96877.53;;;14.90;100.00
34297;BME280;20564;42.902;25.336;2022-09-12T04:13:49;96875.91;;;14.81;100.00
34297;BME280;20564;42.902;25.336;2022-09-12T04:16:16;96877.44;;;14.75;100.00
34297;BME280;20564;42.902;25.336;2022-09-12T04:18:45;96880.22;;;14.82;100.00
34297;BME280;20564;42.902;25.336;2022-09-12T04:21:16;96868.81;;;14.81;100.00
34297;BME280;20564;42.902;25.336;2022-09-12T04:23:43;96881.69;;;14.84;100.00
34297;BME280;20564;42.902;25.336;2022-09-12T04:26:11;96880.00;;;14.91;100.00
34297;BME280;20564;42.902;25.336;2022-09-12T04:28:40;96891.72;;;14.97;100.00
34297;BME280;20564;42.902;25.336;2022-09-12T04:31:10;96888.53;;;15.02;100.00
34297;BME280;20564;42.902;25.336;2022-09-12T04:33:39;96891.38;;;15.00;100.00
34297;BME280;20564;42.902;25.336;2022-09-12T04:36:08;96887.44;;;14.96;100.00
34297;BME280;20564;42.902;25.336;2022-09-12T04:38:36;96878.34;;;14.90;100.00
34297;BME280;20564;42.902;25.336;2022-09-12T04:41:24;96889.41;;;14.94;100.00
34297;BME280;20564;42.902;25.336;2022-09-12T04:43:55;96886.13;;;14.92;100.00
34297;BME280;20564;42.902;25.336;2022-09-12T04:46:31;96897.03;;;14.97;100.00
34297;BME280;20564;42.902;25.336;2022-09-12T04:48:59;96888.47;;;14.87;100.00
34297;BME280;20564;42.902;25.336;2022-09-12T04:51:29;96889.16;;;14.81;100.00
34297;BME280;20564;42.902;25.336;2022-09-12T04:53:59;96897.09;;;14.81;100.00
34297;BME280;20564;42.902;25.336;2022-09-12T04:56:28;96892.47;;;14.83;100.00
34297;BME280;20564;42.902;25.336;2022-09-12T04:58:57;96904.72;;;14.84;100.00
34297;BME280;20564;42.902;25.336;2022-09-12T05:01:27;96900.06;;;14.86;100.00
34297;BME280;20564;42.902;25.336;2022-09-12T05:03:58;96906.50;;;14.91;100.00
34297;BME280;20564;42.902;25.336;2022-09-12T05:06:31;96908.63;;;14.96;100.00
34297;BME280;20564;42.902;25.336;2022-09-12T05:09:00;96897.16;;;15.04;100.00
34297;BME280;20564;42.902;25.336;2022-09-12T05:11:32;96903.53;;;15.17;100.00
34297;BME280;20564;42.902;25.336;2022-09-12T05:14:20;96908.78;;;15.26;100.00
34297;BME280;20564;42.902;25.336;2022-09-12T05:16:47;96903.94;;;15.29;100.00
34297;BME280;20564;42.902;25.336;2022-09-12T05:19:15;96909.00;;;15.39;100.00
34297;BME280;20564;42.902;25.336;2022-09-12T05:21:43;96908.88;;;15.55;100.00
34297;BME280;20564;42.902;25.336;2022-09-12T05:24:10;96911.59;;;15.70;100.00
34297;BME280;20564;42.902;25.336;2022-09-12T05:26:37;96908.75;;;15.95;100.00
34297;BME280;20564;42.902;25.336;2022-09-12T05:29:05;96907.03;;;16.17;100.00
34297;BME280;20564;42.902;25.336;2022-09-12T05:31:34;96905.47;;;16.37;100.00
34297;BME280;20564;42.902;25.336;2022-09-12T05:34:01;96902.97;;;16.65;100.00
34297;BME280;20564;42.902;25.336;2022-09-12T05:36:35;96897.50;;;17.03;100.00
34297;BME280;20564;42.902;25.336;2022-09-12T05:39:03;96892.41;;;17.23;100.00
34297;BME280;20564;42.902;25.336;2022-09-12T05:41:32;96891.25;;;17.53;100.00
34297;BME280;20564;42.902;25.336;2022-09-12T05:44:02;96886.81;;;17.82;98.93
34297;BME280;20564;42.902;25.336;2022-09-12T05:46:35;96898.25;;;18.04;96.98
34297;BME280;20564;42.902;25.336;2022-09-12T05:49:05;96896.50;;;18.18;94.64
34297;BME280;20564;42.902;25.336;2022-09-12T05:51:36;96895.56;;;18.32;92.50
34297;BME280;20564;42.902;25.336;2022-09-12T05:54:06;96893.78;;;18.39;89.85
34297;BME280;20564;42.902;25.336;2022-09-12T05:56:37;96893.72;;;18.33;88.79
34297;BME280;20564;42.902;25.336;2022-09-12T05:59:08;96903.69;;;18.24;87.65
34297;BME280;20564;42.902;25.336;2022-09-12T06:01:41;96894.28;;;18.28;88.26
34297;BME280;20564;42.902;25.336;2022-09-12T06:04:09;96901.94;;;18.38;87.86
34297;BME280;20564;42.902;25.336;2022-09-12T06:06:41;96900.75;;;18.40;87.04
34297;BME280;20564;42.902;25.336;2022-09-12T06:09:13;96898.38;;;18.59;86.39
34297;BME280;20564;42.902;25.336;2022-09-12T06:11:41;96894.31;;;18.69;86.00
34297;BME280;20564;42.902;25.336;2022-09-12T06:14:13;96892.53;;;18.76;84.19
34297;BME280;20564;42.902;25.336;2022-09-12T06:16:40;96893.81;;;18.94;83.81
34297;BME280;20564;42.902;25.336;2022-09-12T06:19:18;96896.16;;;19.17;83.21
34297;BME280;20564;42.902;25.336;2022-09-12T06:21:46;96892.88;;;19.21;81.35
34297;BME280;20564;42.902;25.336;2022-09-12T06:24:16;96895.56;;;19.41;80.90
34297;BME280;20564;42.902;25.336;2022-09-12T06:26:45;96887.19;;;19.58;80.74
34297;BME280;20564;42.902;25.336;2022-09-12T06:29:13;96887.63;;;19.88;80.52
34297;BME280;20564;42.902;25.336;2022-09-12T06:31:44;96883.72;;;19.90;78.01
34297;BME280;20564;42.902;25.336;2022-09-12T06:34:13;96881.66;;;20.06;77.31
34297;BME280;20564;42.902;25.336;2022-09-12T06:36:45;96881.63;;;20.19;75.39
34297;BME280;20564;42.902;25.336;2022-09-12T06:39:18;96868.69;;;20.16;75.25
34297;BME280;20564;42.902;25.336;2022-09-12T06:41:45;96868.28;;;20.19;76.33
34297;BME280;20564;42.902;25.336;2022-09-12T06:44:14;96880.53;;;20.46;75.53
34297;BME280;20564;42.902;25.336;2022-09-12T06:46:43;96875.59;;;20.57;73.02
34297;BME280;20564;42.902;25.336;2022-09-12T06:49:11;96869.81;;;20.66;73.02
34297;BME280;20564;42.902;25.336;2022-09-12T06:51:38;96873.22;;;20.80;72.35
34297;BME280;20564;42.902;25.336;2022-09-12T06:54:08;96878.13;;;20.90;70.97
34297;BME280;20564;42.902;25.336;2022-09-12T06:56:37;96872.59;;;20.91;71.43
34297;BME280;20564;42.902;25.336;2022-09-12T06:59:05;96880.38;;;21.00;69.83
34297;BME280;20564;42.902;25.336;2022-09-12T07:01:32;96876.88;;;20.99;68.20
34297;BME280;20564;42.902;25.336;2022-09-12T07:04:01;96876.78;;;20.74;68.97
34297;BME280;20564;42.902;25.336;2022-09-12T07:06:33;96886.81;;;20.85;68.76
34297;BME280;20564;42.902;25.336;2022-09-12T07:09:03;96884.69;;;20.94;68.44
34297;BME280;20564;42.902;25.336;2022-09-12T07:11:34;96880.28;;;21.13;67.64
34297;BME280;20564;42.902;25.336;2022-09-12T07:14:03;96875.91;;;21.25;67.15
34297;BME280;20564;42.902;25.336;2022-09-12T07:16:31;96876.06;;;21.30;66.28
34297;BME280;20564;42.902;25.336;2022-09-12T07:19:00;96876.28;;;21.35;66.79
34297;BME280;20564;42.902;25.336;2022-09-12T07:21:28;96861.59;;;21.45;65.05
34297;BME280;20564;42.902;25.336;2022-09-12T07:23:56;96876.38;;;21.54;63.91
34297;BME280;20564;42.902;25.336;2022-09-12T07:26:28;96868.06;;;21.62;62.87
34297;BME280;20564;42.902;25.336;2022-09-12T07:28:56;96878.22;;;21.78;63.07
34297;BME280;20564;42.902;25.336;2022-09-12T07:31:49;96869.38;;;21.46;62.51
34297;BME280;20564;42.902;25.336;2022-09-12T07:34:18;96874.25;;;21.24;64.25
34297;BME280;20564;42.902;25.336;2022-09-12T07:36:45;96864.34;;;20.93;64.67
34297;BME280;20564;42.902;25.336;2022-09-12T07:39:12;96884.59;;;20.69;65.87
34297;BME280;20564;42.902;25.336;2022-09-12T07:41:39;96880.03;;;20.76;64.96
34297;BME280;20564;42.902;25.336;2022-09-12T07:44:08;96876.41;;;21.02;63.49
34297;BME280;20564;42.902;25.336;2022-09-12T07:46:38;96873.59;;;20.90;64.43
34297;BME280;20564;42.902;25.336;2022-09-12T07:49:06;96875.28;;;20.85;63.33
34297;BME280;20564;42.902;25.336;2022-09-12T07:51:34;96875.53;;;21.15;63.35
34297;BME280;20564;42.902;25.336;2022-09-12T07:54:08;96873.69;;;21.54;62.58
34297;BME280;20564;42.902;25.336;2022-09-12T07:56:36;96879.25;;;21.77;60.43
34297;BME280;20564;42.902;25.336;2022-09-12T07:59:08;96874.19;;;21.69;59.96
34297;BME280;20564;42.902;25.336;2022-09-12T08:01:36;96869.91;;;21.86;59.24
34297;BME280;20564;42.902;25.336;2022-09-12T08:04:07;96869.06;;;22.11;59.56
34297;BME280;20564;42.902;25.336;2022-09-12T08:06:35;96877.63;;;21.76;58.01
34297;BME280;20564;42.902;25.336;2022-09-12T08:09:04;96872.94;;;21.40;58.73
34297;BME280;20564;42.902;25.336;2022-09-12T08:11:33;96865.66;;;21.54;58.41
34297;BME280;20564;42.902;25.336;2022-09-12T08:14:02;96852.25;;;21.79;58.65
34297;BME280;20564;42.902;25.336;2022-09-12T08:16:31;96846.16;;;22.15;58.06
34297;BME280;20564;42.902;25.336;2022-09-12T08:19:00;96857.72;;;22.52;56.70
34297;BME280;20564;42.902;25.336;2022-09-12T08:21:29;96863.75;;;22.66;55.03
34297;BME280;20564;42.902;25.336;2022-09-12T08:24:01;96856.44;;;22.73;54.98
34297;BME280;20564;42.902;25.336;2022-09-12T08:26:29;96859.13;;;22.73;54.16
34297;BME280;20564;42.902;25.336;2022-09-12T08:28:57;96868.75;;;22.44;54.64
34297;BME280;20564;42.902;25.336;2022-09-12T08:31:26;96853.47;;;22.45;54.10
34297;BME280;20564;42.902;25.336;2022-09-12T08:33:56;96849.78;;;22.46;54.68
34297;BME280;20564;42.902;25.336;2022-09-12T08:36:27;96848.56;;;22.60;54.94
34297;BME280;20564;42.902;25.336;2022-09-12T08:39:00;96851.00;;;22.80;55.11
34297;BME280;20564;42.902;25.336;2022-09-12T08:41:31;96835.28;;;22.65;54.62
34297;BME280;20564;42.902;25.336;2022-09-12T08:49:40;96839.28;;;22.74;53.61
34297;BME280;20564;42.902;25.336;2022-09-12T08:52:14;96835.38;;;22.88;53.10
34297;BME280;20564;42.902;25.336;2022-09-12T08:54:45;96843.53;;;23.00;52.44
34297;BME280;20564;42.902;25.336;2022-09-12T08:57:14;96831.94;;;22.51;53.22
34297;BME280;20564;42.902;25.336;2022-09-12T08:59:43;96844.94;;;22.11;55.56
34297;BME280;20564;42.902;25.336;2022-09-12T09:02:46;96855.00;;;21.72;55.71
34297;BME280;20564;42.902;25.336;2022-09-12T09:05:41;96848.09;;;21.58;56.35
34297;BME280;20564;42.902;25.336;2022-09-12T09:08:37;96828.03;;;22.10;57.00
34297;BME280;20564;42.902;25.336;2022-09-12T09:17:45;96830.59;;;23.09;50.98
34297;BME280;20564;42.902;25.336;2022-09-12T09:20:40;96805.75;;;23.14;49.99
34297;BME280;20564;42.902;25.336;2022-09-12T09:23:23;96812.28;;;23.06;49.79
34297;BME280;20564;42.902;25.336;2022-09-12T09:26:13;96819.47;;;22.75;51.45
34297;BME280;20564;42.902;25.336;2022-09-12T09:28:49;96817.34;;;22.47;53.08
34297;BME280;20564;42.902;25.336;2022-09-12T09:31:21;96820.84;;;22.29;53.80
34297;BME280;20564;42.902;25.336;2022-09-12T09:33:51;96819.63;;;22.07;53.80
34297;BME280;20564;42.902;25.336;2022-09-12T09:42:22;96803.44;;;22.38;54.79
34297;BME280;20564;42.902;25.336;2022-09-12T09:44:57;96809.53;;;22.46;53.44
34297;BME280;20564;42.902;25.336;2022-09-12T09:47:26;96801.91;;;22.06;52.40
34297;BME280;20564;42.902;25.336;2022-09-12T09:49:53;96811.91;;;21.74;53.07
34297;BME280;20564;42.902;25.336;2022-09-12T09:52:25;96811.84;;;21.80;56.11
34297;BME280;20564;42.902;25.336;2022-09-12T09:54:59;96806.94;;;22.21;53.49
34297;BME280;20564;42.902;25.336;2022-09-12T10:03:32;96816.31;;;22.30;54.16
34297;BME280;20564;42.902;25.336;2022-09-12T10:08:49;96809.16;;;21.80;54.21
34297;BME280;20564;42.902;25.336;2022-09-12T10:11:21;96816.69;;;21.90;55.87
34297;BME280;20564;42.902;25.336;2022-09-12T10:13:58;96809.63;;;21.96;53.45
34297;BME280;20564;42.902;25.336;2022-09-12T10:16:31;96807.50;;;22.41;52.88
34297;BME280;20564;42.902;25.336;2022-09-12T10:19:02;96815.50;;;22.78;52.50
34297;BME280;20564;42.902;25.336;2022-09-12T10:21:33;96809.22;;;23.02;51.96
34297;BME280;20564;42.902;25.336;2022-09-12T10:24:25;96808.94;;;22.92;51.16
34297;BME280;20564;42.902;25.336;2022-09-12T10:27:41;96817.03;;;22.55;50.42
34297;BME280;20564;42.902;25.336;2022-09-12T10:30:16;96806.66;;;22.04;51.29
34297;BME280;20564;42.902;25.336;2022-09-12T10:32:46;96800.09;;;22.00;52.91
34297;BME280;20564;42.902;25.336;2022-09-12T10:35:30;96807.41;;;22.11;54.01
34297;BME280;20564;42.902;25.336;2022-09-12T10:38:30;96802.81;;;22.55;53.04
34297;BME280;20564;42.902;25.336;2022-09-12T10:41:06;96793.56;;;22.99;51.57
34297;BME280;20564;42.902;25.336;2022-09-12T10:43:37;96814.97;;;23.06;51.45
34297;BME280;20564;42.902;25.336;2022-09-12T10:48:43;96822.34;;;22.44;52.19
34297;BME280;20564;42.902;25.336;2022-09-12T10:51:26;96827.56;;;22.20;51.16
34297;BME280;20564;42.902;25.336;2022-09-12T10:53:59;96818.84;;;22.25;51.13
34297;BME280;20564;42.902;25.336;2022-09-12T10:56:32;96825.47;;;22.41;51.11
34297;BME280;20564;42.902;25.336;2022-09-12T11:04:21;96827.31;;;23.07;51.25
34297;BME280;20564;42.902;25.336;2022-09-12T11:12:52;96821.34;;;23.35;48.84
34297;BME280;20564;42.902;25.336;2022-09-12T11:35:31;96793.47;;;23.06;49.36
34297;BME280;20564;42.902;25.336;2022-09-12T11:38:28;96797.53;;;23.39;48.48
34297;BME280;20564;42.902;25.336;2022-09-12T11:41:08;96791.59;;;23.48;46.60
34297;BME280;20564;42.902;25.336;2022-09-12T11:43:55;96783.06;;;23.63;46.04
34297;BME280;20564;42.902;25.336;2022-09-12T11:46:43;96776.00;;;23.80;45.91
34297;BME280;20564;42.902;25.336;2022-09-12T11:52:14;96785.00;;;23.32;47.00
34297;BME280;20564;42.902;25.336;2022-09-12T11:55:03;96782.31;;;22.91;47.73
34297;BME280;20564;42.902;25.336;2022-09-12T11:57:48;96771.63;;;22.72;48.46
34297;BME280;20564;42.902;25.336;2022-09-12T12:00:26;96779.06;;;22.70;49.51
34297;BME280;20564;42.902;25.336;2022-09-12T12:05:56;96769.72;;;22.61;48.91
34297;BME280;20564;42.902;25.336;2022-09-12T12:08:26;96761.38;;;22.51;49.10
34297;BME280;20564;42.902;25.336;2022-09-12T12:10:58;96764.88;;;22.81;49.49
34297;BME280;20564;42.902;25.336;2022-09-12T12:18:43;96753.97;;;23.60;47.58
34297;BME280;20564;42.902;25.336;2022-09-12T12:34:31;96765.41;;;22.60;49.21
34297;BME280;20564;42.902;25.336;2022-09-12T12:52:56;96757.44;;;22.53;50.50
34297;BME280;20564;42.902;25.336;2022-09-12T12:57:57;96759.78;;;22.31;48.72
34297;BME280;20564;42.902;25.336;2022-09-12T13:00:26;96766.94;;;22.19;48.92
34297;BME280;20564;42.902;25.336;2022-09-12T13:03:00;96752.03;;;22.05;49.54
34297;BME280;20564;42.902;25.336;2022-09-12T13:05:36;96753.88;;;22.04;49.81
34297;BME280;20564;42.902;25.336;2022-09-12T13:08:08;96762.75;;;22.05;49.50
34297;BME280;20564;42.902;25.336;2022-09-12T13:10:37;96764.09;;;22.14;50.60
34297;BME280;20564;42.902;25.336;2022-09-12T13:13:06;96760.09;;;22.23;50.94
34297;BME280;20564;42.902;25.336;2022-09-12T13:18:06;96759.63;;;22.26;49.86
34297;BME280;20564;42.902;25.336;2022-09-12T13:21:09;96759.94;;;22.18;50.21
34297;BME280;20564;42.902;25.336;2022-09-12T13:23:41;96762.28;;;22.08;51.15
34297;BME280;20564;42.902;25.336;2022-09-12T13:26:23;96768.69;;;22.07;50.99
34297;BME280;20564;42.902;25.336;2022-09-12T13:29:22;96765.34;;;22.30;51.04
34297;BME280;20564;42.902;25.336;2022-09-12T13:31:55;96765.63;;;22.58;49.32
34297;BME280;20564;42.902;25.336;2022-09-12T13:34:34;96757.16;;;22.73;47.85
34297;BME280;20564;42.902;25.336;2022-09-12T13:37:26;96766.53;;;22.82;47.55
34297;BME280;20564;42.902;25.336;2022-09-12T13:45:36;96773.63;;;22.47;48.69
34297;BME280;20564;42.902;25.336;2022-09-12T13:48:11;96767.63;;;22.63;48.50
34297;BME280;20564;42.902;25.336;2022-09-12T13:50:53;96755.72;;;22.59;48.06
34297;BME280;20564;42.902;25.336;2022-09-12T13:53:25;96761.88;;;22.59;48.34
34297;BME280;20564;42.902;25.336;2022-09-12T13:55:57;96759.16;;;22.48;48.51
34297;BME280;20564;42.902;25.336;2022-09-12T13:58:28;96764.84;;;22.39;48.75
34297;BME280;20564;42.902;25.336;2022-09-12T14:01:06;96760.81;;;22.30;49.26
34297;BME280;20564;42.902;25.336;2022-09-12T14:03:47;96763.72;;;22.29;50.37
34297;BME280;20564;42.902;25.336;2022-09-12T14:06:49;96756.81;;;22.21;50.98
34297;BME280;20564;42.902;25.336;2022-09-12T14:09:24;96755.19;;;22.20;50.47
34297;BME280;20564;42.902;25.336;2022-09-12T14:11:52;96755.44;;;22.12;49.69
34297;BME280;20564;42.902;25.336;2022-09-12T14:14:32;96756.28;;;22.31;50.28
34297;BME280;20564;42.902;25.336;2022-09-12T14:17:14;96761.38;;;22.51;50.40
34297;BME280;20564;42.902;25.336;2022-09-12T14:19:49;96745.53;;;22.79;48.03
34297;BME280;20564;42.902;25.336;2022-09-12T14:22:17;96754.94;;;22.70;47.64
34297;BME280;20564;42.902;25.336;2022-09-12T14:24:49;96762.38;;;22.56;47.97
34297;BME280;20564;42.902;25.336;2022-09-12T14:27:22;96760.72;;;22.55;48.85
34297;BME280;20564;42.902;25.336;2022-09-12T14:29:59;96778.16;;;22.46;50.09
34297;BME280;20564;42.902;25.336;2022-09-12T14:32:27;96770.44;;;22.38;50.83
34297;BME280;20564;42.902;25.336;2022-09-12T14:37:38;96769.03;;;22.17;49.81
34297;BME280;20564;42.902;25.336;2022-09-12T14:40:17;96769.88;;;22.11;50.37
34297;BME280;20564;42.902;25.336;2022-09-12T14:42:49;96781.28;;;22.06;51.13
34297;BME280;20564;42.902;25.336;2022-09-12T14:45:24;96777.34;;;22.09;50.09
34297;BME280;20564;42.902;25.336;2022-09-12T14:47:55;96766.78;;;22.14;50.99
34297;BME280;20564;42.902;25.336;2022-09-12T14:50:26;96771.63;;;22.24;51.00
34297;BME280;20564;42.902;25.336;2022-09-12T14:55:49;96769.59;;;22.37;48.67
34297;BME280;20564;42.902;25.336;2022-09-12T15:03:48;96761.41;;;22.32;48.28
34297;BME280;20564;42.902;25.336;2022-09-12T15:06:28;96764.34;;;22.31;48.87
34297;BME280;20564;42.902;25.336;2022-09-12T15:09:01;96756.88;;;22.33;48.45
34297;BME280;20564;42.902;25.336;2022-09-12T15:11:28;96751.44;;;22.21;48.66
34297;BME280;20564;42.902;25.336;2022-09-12T15:13:55;96761.88;;;22.29;48.29
34297;BME280;20564;42.902;25.336;2022-09-12T15:16:22;96756.38;;;22.24;48.70
34297;BME280;20564;42.902;25.336;2022-09-12T15:18:50;96762.88;;;22.10;47.59
34297;BME280;20564;42.902;25.336;2022-09-12T15:21:18;96762.22;;;21.96;47.39
34297;BME280;20564;42.902;25.336;2022-09-12T15:23:50;96753.06;;;21.85;47.80
34297;BME280;20564;42.902;25.336;2022-09-12T15:26:23;96752.66;;;21.82;48.23
34297;BME280;20564;42.902;25.336;2022-09-12T15:28:52;96764.06;;;21.77;48.30
34297;BME280;20564;42.902;25.336;2022-09-12T15:31:30;96751.72;;;21.76;48.22
34297;BME280;20564;42.902;25.336;2022-09-12T15:33:59;96755.72;;;21.85;47.99
34297;BME280;20564;42.902;25.336;2022-09-12T15:36:27;96757.69;;;22.15;47.73
34297;BME280;20564;42.902;25.336;2022-09-12T15:38:57;96762.00;;;21.98;47.54
34297;BME280;20564;42.902;25.336;2022-09-12T15:41:32;96760.97;;;21.99;47.78
34297;BME280;20564;42.902;25.336;2022-09-12T15:44:04;96762.44;;;21.76;48.44
34297;BME280;20564;42.902;25.336;2022-09-12T15:46:31;96767.16;;;21.56;49.17
34297;BME280;20564;42.902;25.336;2022-09-12T15:48:58;96771.41;;;21.38;49.49
34297;BME280;20564;42.902;25.336;2022-09-12T15:51:26;96766.16;;;21.25;49.70
34297;BME280;20564;42.902;25.336;2022-09-12T15:53:53;96769.53;;;21.14;50.06
34297;BME280;20564;42.902;25.336;2022-09-12T15:56:21;96770.53;;;21.13;50.71
34297;BME280;20564;42.902;25.336;2022-09-12T15:58:49;96778.66;;;21.06;51.04
34297;BME280;20564;42.902;25.336;2022-09-12T16:01:26;96772.94;;;20.96;51.38
34297;BME280;20564;42.902;25.336;2022-09-12T16:03:55;96779.78;;;20.92;51.39
34297;BME280;20564;42.902;25.336;2022-09-12T16:06:22;96767.47;;;20.84;51.32
34297;BME280;20564;42.902;25.336;2022-09-12T16:08:49;96771.59;;;20.80;52.58
34297;BME280;20564;42.902;25.336;2022-09-12T16:11:22;96774.72;;;20.77;52.30
34297;BME280;20564;42.902;25.336;2022-09-12T16:13:53;96784.19;;;20.73;52.55